Time;durP1;ratioP1;P1;durP2;ratioP2;P2;SDS_P1;SDS_P2;PMS_P1;PMS_P2;Temp;Humidity;BMP_temperature;BMP_pressure;BME280_temperature;BME280_humidity;BME280_pressure;Samples;Min_cycle;Max_cycle;Signal;HPM_P1;HPM_P2
2022/11/13 00:00:50;;;;;;;2.50;2.33;;;;;;;6.60;84.38;100886.28;4439029;32;33510;-74
2022/11/13 00:03:36;;;;;;;1.95;1.83;;;;;;;6.86;82.86;100892.25;4439602;32;34858;-74
2022/11/13 00:06:22;;;;;;;4.47;4.07;;;;;;;6.87;81.81;100880.22;4438828;32;35067;-74
2022/11/13 00:09:10;;;;;;;2.03;1.73;;;;;;;6.70;83.55;100882.28;4428096;32;34758;-74
2022/11/13 00:11:57;;;;;;;3.10;1.87;;;;;;;7.27;78.63;100882.22;4438669;32;34314;-74
2022/11/13 00:14:43;;;;;;;2.17;2.08;;;;;;;6.52;84.17;100882.62;4439762;32;34064;-73
2022/11/13 00:17:30;;;;;;;2.87;2.67;;;;;;;6.85;81.24;100880.16;4439814;32;36141;-74
2022/11/13 00:20:17;;;;;;;8.25;5.82;;;;;;;6.54;83.04;100878.38;4438721;32;35084;-73
2022/11/13 00:23:04;;;;;;;2.15;2.05;;;;;;;6.75;82.09;100884.19;4439611;32;33512;-74
2022/11/13 00:25:51;;;;;;;3.33;2.83;;;;;;;6.54;82.93;100886.12;4439674;32;34407;-73
2022/11/13 00:28:37;;;;;;;1.40;1.35;;;;;;;6.71;81.91;100887.53;4439714;32;35818;-73
2022/11/13 00:31:24;;;;;;;5.87;4.57;;;;;;;6.90;80.60;100891.53;4427646;32;35177;-73
2022/11/13 00:34:11;;;;;;;;;;;;;;;7.03;80.07;100883.25;4439045;32;33914;-74
2022/11/13 00:37:17;;;;;;;2.60;2.40;;;;;;;6.77;81.71;100886.81;4438693;32;34903;-73
2022/11/13 00:40:04;;;;;;;1.70;1.60;;;;;;;6.36;82.78;100886.44;4438569;32;34971;-73
2022/11/13 00:42:51;;;;;;;4.28;2.78;;;;;;;6.74;81.06;100884.13;4439465;32;34564;-74
2022/11/13 00:45:37;;;;;;;4.50;3.40;;;;;;;6.19;84.14;100884.19;4439742;32;33933;-74
2022/11/13 00:48:24;;;;;;;3.90;3.05;;;;;;;6.07;83.92;100888.97;4439480;32;34120;-73
2022/11/13 00:51:11;;;;;;;2.60;1.77;;;;;;;6.80;80.96;100882.59;4438394;32;36019;-73
2022/11/13 00:53:57;;;;;;;1.45;1.35;;;;;;;6.98;80.49;100884.84;4438241;32;34529;-74
2022/11/13 00:56:44;;;;;;;4.53;4.12;;;;;;;6.80;80.88;100884.31;4439428;32;33373;-74
2022/11/13 00:59:30;;;;;;;5.73;5.17;;;;;;;6.09;84.75;100887.31;4439417;32;33953;-73
2022/11/13 01:02:16;;;;;;;2.47;2.15;;;;;;;6.58;82.81;100882.78;4437918;32;33576;-73
2022/11/13 01:05:03;;;;;;;7.90;5.07;;;;;;;6.21;82.88;100877.37;4438418;32;34509;-73
2022/11/13 01:07:50;;;;;;;3.50;2.12;;;;;;;6.51;82.36;100871.41;4438467;32;33469;-73
2022/11/13 01:10:43;;;;;;;4.75;3.28;;;;;;;6.61;82.35;100878.59;4439207;32;34807;-73
2022/11/13 01:13:38;;;;;;;2.65;2.45;;;;;;;6.78;80.57;100878.22;4437768;32;34726;-74
2022/11/13 01:16:25;;;;;;;6.45;4.20;;;;;;;6.48;82.33;100866.12;4439323;32;34432;-73
2022/11/13 01:19:13;;;;;;;3.78;2.70;;;;;;;6.64;82.46;100865.75;4438445;32;34358;-73
2022/11/13 01:21:59;;;;;;;1.55;1.35;;;;;;;6.04;84.93;100857.84;4439142;32;33980;-74
2022/11/13 01:24:46;;;;;;;7.28;4.12;;;;;;;6.49;83.93;100864.41;4439156;32;35153;-74
2022/11/13 01:27:35;;;;;;;3.35;2.22;;;;;;;6.30;84.59;100860.37;4438241;32;34477;-73
2022/11/13 01:30:22;;;;;;;3.37;3.10;;;;;;;6.91;82.01;100862.19;4438127;32;34399;-73
2022/11/13 01:33:08;;;;;;;;;;;;;;;6.87;80.00;100855.19;4439427;32;33942;-73
2022/11/13 01:36:08;;;;;;;1.08;1.02;;;;;;;6.56;82.13;100848.22;4439077;32;35356;-73
2022/11/13 01:38:55;;;;;;;1.60;1.50;;;;;;;6.32;83.48;100848.34;4437934;32;35340;-74
2022/11/13 01:41:41;;;;;;;19.67;3.35;;;;;;;5.80;84.97;100847.56;4437996;32;33319;-74
2022/11/13 01:44:51;;;;;;;3.00;2.80;;;;;;;5.97;83.51;100851.59;4438633;32;33930;-74
2022/11/13 01:47:38;;;;;;;2.15;2.05;;;;;;;5.71;85.75;100853.28;4438816;32;35060;-74
2022/11/13 01:50:24;;;;;;;1.00;1.00;;;;;;;5.74;86.77;100843.06;4438781;32;35280;-74
2022/11/13 01:53:11;;;;;;;1.90;1.80;;;;;;;6.84;81.88;100847.31;4437749;32;33575;-73
2022/11/13 01:55:58;;;;;;;1.15;1.15;;;;;;;6.81;79.94;100839.47;4437672;32;34827;-74
2022/11/13 01:58:51;;;;;;;2.42;2.00;;;;;;;5.95;83.43;100841.97;4438674;32;35150;-73
2022/11/13 02:01:37;;;;;;;6.22;4.32;;;;;;;6.35;82.81;100827.75;4437596;32;34548;-73
2022/11/13 02:04:24;;;;;;;2.37;2.28;;;;;;;6.65;81.24;100822.59;4437156;32;32273;-73
2022/11/13 02:07:12;;;;;;;3.20;2.97;;;;;;;6.79;80.57;100831.69;4437619;32;33855;-74
2022/11/13 02:10:00;;;;;;;2.00;1.90;;;;;;;6.59;82.20;100825.91;4437508;32;34956;-73
2022/11/13 02:12:49;;;;;;;3.10;2.60;;;;;;;6.51;81.58;100816.16;4437073;32;34605;-73
2022/11/13 02:15:36;;;;;;;9.52;5.82;;;;;;;6.67;79.49;100826.16;4437461;32;33512;-73
2022/11/13 02:18:22;;;;;;;4.82;3.60;;;;;;;6.56;79.86;100817.16;4437477;32;34777;-74
2022/11/13 02:21:30;;;;;;;5.80;5.25;;;;;;;6.34;80.58;100820.84;4438406;32;35862;-73
2022/11/13 02:24:37;;;;;;;2.42;2.20;;;;;;;6.56;80.72;100820.63;4437140;32;34599;-74
2022/11/13 02:27:34;;;;;;;1.37;1.27;;;;;;;6.37;81.96;100821.81;4439808;32;33688;-73
2022/11/13 02:30:25;;;;;;;2.17;1.85;;;;;;;6.38;82.52;100817.50;4439526;32;33539;-73
2022/11/13 02:33:22;;;;;;;3.22;2.97;;;;;;;6.76;80.92;100815.16;4439382;32;36001;-73
2022/11/13 02:36:09;;;;;;;2.42;2.22;;;;;;;6.34;82.83;100805.31;4439419;32;34475;-74
2022/11/13 02:38:58;;;;;;;4.32;3.22;;;;;;;5.28;88.58;100816.56;4439443;32;33603;-73
2022/11/13 02:41:45;;;;;;;3.05;2.55;;;;;;;5.16;90.16;100816.13;4440518;32;34860;-74
2022/11/13 02:44:31;;;;;;;2.03;1.80;;;;;;;5.83;87.73;100807.16;4440095;32;35953;-74
2022/11/13 02:47:17;;;;;;;1.57;1.00;;;;;;;6.00;87.20;100799.09;4439257;32;33963;-73
2022/11/13 02:50:05;;;;;;;;;;;;;;;6.23;87.36;100798.12;4440607;32;33469;-73
2022/11/13 02:52:51;;;;;;;2.90;2.70;;;;;;;7.09;83.55;100797.06;4440255;32;35100;-73
2022/11/13 02:55:37;;;;;;;2.67;1.40;;;;;;;7.28;82.61;100795.00;4439971;32;34979;-73
2022/11/13 02:58:23;;;;;;;2.25;2.12;;;;;;;6.75;84.80;100803.94;4440388;32;34594;-73
2022/11/13 03:01:10;;;;;;;1.65;1.50;;;;;;;6.80;84.86;100811.84;4440000;32;33395;-73
2022/11/13 03:03:57;;;;;;;0.80;0.80;;;;;;;6.58;84.06;100807.72;4428406;32;33334;-73
2022/11/13 03:06:43;;;;;;;2.72;2.50;;;;;;;6.30;84.60;100813.81;4440312;32;35948;-73
2022/11/13 03:09:30;;;;;;;4.18;3.87;;;;;;;6.20;85.66;100810.06;4440188;32;35362;-73
2022/11/13 03:12:16;;;;;;;3.15;2.95;;;;;;;6.43;85.94;100816.81;4440116;32;33520;-73
2022/11/13 03:15:03;;;;;;;2.28;2.17;;;;;;;6.64;84.42;100820.88;4440168;32;33942;-74
2022/11/13 03:17:50;;;;;;;2.00;1.90;;;;;;;6.90;81.38;100819.03;4439181;32;35079;-73
2022/11/13 03:20:38;;;;;;;1.65;1.55;;;;;;;6.76;79.67;100817.72;4439104;32;35077;-73
2022/11/13 03:23:25;;;;;;;1.80;1.70;;;;;;;6.39;81.71;100817.56;4438937;32;34487;-73
2022/11/13 03:26:14;;;;;;;4.35;2.15;;;;;;;6.53;79.19;100810.22;4440070;32;34900;-73
2022/11/13 03:29:00;;;;;;;1.70;1.60;;;;;;;6.44;78.73;100812.50;4428519;32;35074;-73
2022/11/13 03:31:47;;;;;;;6.75;6.10;;;;;;;6.25;79.39;100809.38;4438992;32;35308;-73
2022/11/13 03:34:34;;;;;;;0.98;0.98;;;;;;;5.98;80.15;100811.09;4440073;32;33466;-73
2022/11/13 03:37:20;;;;;;;2.05;1.95;;;;;;;5.04;86.59;100819.16;4439517;32;34859;-73
2022/11/13 03:40:07;;;;;;;3.30;1.73;;;;;;;5.15;89.39;100816.06;4439959;32;35075;-73
2022/11/13 03:42:53;;;;;;;4.68;4.25;;;;;;;4.88;92.82;100819.44;4439991;32;34459;-73
2022/11/13 03:45:40;;;;;;;3.60;2.78;;;;;;;5.62;86.49;100815.09;4439756;32;34166;-73
2022/11/13 03:48:27;;;;;;;2.00;1.90;;;;;;;5.19;85.43;100811.06;4439967;32;34049;-73
2022/11/13 03:51:14;;;;;;;2.55;1.65;;;;;;;5.41;86.22;100812.66;4439812;32;35069;-73
2022/11/13 03:54:00;;;;;;;6.53;4.43;;;;;;;5.21;85.66;100813.72;4439858;32;35356;-74
2022/11/13 03:56:46;;;;;;;2.65;2.03;;;;;;;5.79;81.58;100799.25;4438670;32;33398;-73
2022/11/13 03:59:33;;;;;;;2.28;1.60;;;;;;;5.84;81.32;100797.69;4439882;32;34085;-73
2022/11/13 04:02:19;;;;;;;1.07;1.07;;;;;;;5.69;82.50;100801.53;4438381;32;33715;-74
2022/11/13 04:05:06;;;;;;;1.80;1.70;;;;;;;5.82;80.54;100808.00;4439729;32;35126;-73
2022/11/13 04:07:53;;;;;;;0.88;0.88;;;;;;;5.42;82.72;100806.69;4439775;32;33413;-73
2022/11/13 04:10:40;;;;;;;1.73;1.48;;;;;;;5.40;84.08;100803.19;4438855;32;33550;-73
2022/11/13 04:13:26;;;;;;;2.22;2.12;;;;;;;5.34;84.18;100809.84;4439383;32;35114;-74
2022/11/13 04:16:12;;;;;;;3.65;3.35;;;;;;;4.66;87.55;100805.75;4439828;32;34492;-73
2022/11/13 04:18:59;;;;;;;4.27;2.23;;;;;;;5.23;84.51;100806.91;4438918;32;33894;-73
2022/11/13 04:21:45;;;;;;;2.37;2.22;;;;;;;5.66;82.04;100805.75;4439733;32;34080;-73
2022/11/13 04:24:32;;;;;;;0.90;0.90;;;;;;;5.11;84.42;100812.50;4439636;32;35044;-74
2022/11/13 04:27:18;;;;;;;0.95;0.95;;;;;;;4.47;87.97;100801.59;4439682;32;34375;-73
2022/11/13 04:30:05;;;;;;;4.78;3.37;;;;;;;4.51;88.13;100807.75;4439670;32;33628;-73
2022/11/13 04:32:51;;;;;;;4.40;4.07;;;;;;;5.12;85.81;100804.81;4439647;32;33828;-73
2022/11/13 04:35:38;;;;;;;0.90;0.90;;;;;;;4.97;85.57;100811.13;4439609;32;35920;-73
2022/11/13 04:38:24;;;;;;;1.20;1.05;;;;;;;4.94;85.33;100810.22;4439321;32;34190;-73
2022/11/13 04:44:17;;;;;;;2.60;1.45;;;;;;;5.27;83.27;100808.75;4438663;32;34770;-73
2022/11/13 04:47:04;;;;;;;1.70;1.60;;;;;;;5.35;82.44;100812.47;4439252;32;35205;-73
2022/11/13 04:49:51;;;;;;;1.45;1.35;;;;;;;5.25;83.57;100805.25;4426452;32;33763;-73
2022/11/13 04:52:38;;;;;;;1.62;1.52;;;;;;;5.13;83.13;100804.00;4439474;32;33450;-73
2022/11/13 04:55:24;;;;;;;1.02;1.02;;;;;;;4.37;87.16;100804.66;4438520;32;34780;-73
2022/11/13 04:58:11;;;;;;;2.15;2.05;;;;;;;4.17;88.91;100803.91;4439543;32;35189;-73
2022/11/13 05:00:57;;;;;;;2.00;1.90;;;;;;;4.25;89.55;100799.91;4438505;32;35317;-73
2022/11/13 05:03:43;;;;;;;0.60;0.60;;;;;;;4.94;87.69;100804.16;4439531;32;33631;-73
2022/11/13 05:06:30;;;;;;;0.95;0.95;;;;;;;4.85;86.18;100801.25;4438414;32;34755;-74
2022/11/13 05:09:16;;;;;;;1.62;1.52;;;;;;;5.16;86.22;100804.94;4438336;32;35063;-73
2022/11/13 05:12:06;;;;;;;1.90;1.15;;;;;;;5.86;82.29;100804.69;4438371;32;35127;-73
2022/11/13 05:14:53;;;;;;;2.55;2.45;;;;;;;5.91;80.61;100798.78;4439233;32;33669;-73
2022/11/13 05:17:39;;;;;;;13.80;4.97;;;;;;;5.38;84.77;100791.91;4439269;32;33978;-73
2022/11/13 05:20:25;;;;;;;1.83;1.73;;;;;;;5.03;86.61;100799.34;4438122;32;35054;-74
2022/11/13 05:23:12;;;;;;;7.90;4.25;;;;;;;4.86;88.70;100795.28;4438981;32;35193;-73
2022/11/13 05:26:10;;;;;;;1.70;1.35;;;;;;;4.50;88.60;100800.81;4438133;32;33361;-73
2022/11/13 05:28:58;;;;;;;3.70;1.62;;;;;;;4.57;91.16;100805.41;4439006;32;33439;-73
2022/11/13 05:31:45;;;;;;;1.37;1.27;;;;;;;5.38;85.19;100801.34;4438057;32;35197;-73
2022/11/13 05:34:32;;;;;;;3.95;1.75;;;;;;;5.72;82.97;100802.47;4438074;32;34458;-74
2022/11/13 05:37:18;;;;;;;2.08;1.95;;;;;;;5.94;80.48;100796.28;4439059;32;33502;-73
2022/11/13 05:40:05;;;;;;;1.00;1.00;;;;;;;5.86;80.97;100798.66;4438855;32;34093;-73
2022/11/13 05:42:54;;;;;;;0.77;0.77;;;;;;;5.53;82.35;100801.88;4438919;32;35173;-74
2022/11/13 05:45:41;;;;;;;4.05;3.75;;;;;;;5.21;83.71;100799.09;4427057;32;34587;-73
2022/11/13 05:48:28;;;;;;;7.93;5.50;;;;;;;5.10;84.74;100796.13;4437615;32;33365;-73
2022/11/13 05:51:15;;;;;;;;;;;;;;;4.85;87.51;100793.50;4439108;32;34148;-73
2022/11/13 05:54:02;;;;;;;2.22;1.25;;;;;;;5.71;83.96;100791.25;4437810;32;35463;-73
2022/11/13 05:56:48;;;;;;;1.98;1.87;;;;;;;6.06;81.68;100783.78;4437685;32;35101;-73
2022/11/13 05:59:35;;;;;;;2.25;1.85;;;;;;;6.20;80.24;100779.91;4438646;32;33547;-73
2022/11/13 06:02:21;;;;;;;1.50;1.40;;;;;;;6.10;80.61;100779.59;4440681;32;34647;-73
2022/11/13 06:05:07;;;;;;;2.30;2.10;;;;;;;5.59;82.73;100780.53;4440562;32;35781;-73
2022/11/13 06:07:54;;;;;;;1.85;1.62;;;;;;;6.03;81.57;100781.09;4439583;32;34454;-74
2022/11/13 06:10:40;;;;;;;1.35;1.27;;;;;;;6.00;81.62;100779.31;4440539;32;33755;-73
2022/11/13 06:13:27;;;;;;;3.92;3.37;;;;;;;5.84;83.30;100783.09;4439572;32;34076;-73
2022/11/13 06:16:17;;;;;;;1.20;1.10;;;;;;;5.51;83.53;100793.22;4440600;32;36034;-73
2022/11/13 06:19:08;;;;;;;1.30;1.23;;;;;;;4.86;87.85;100787.53;4439517;32;34501;-73
2022/11/13 06:21:54;;;;;;;1.98;1.83;;;;;;;5.17;86.84;100789.50;4440554;32;33471;-74
2022/11/13 06:24:41;;;;;;;0.80;0.80;;;;;;;5.58;86.67;100789.13;4440496;32;34684;-73
2022/11/13 06:27:27;;;;;;;2.25;1.62;;;;;;;5.96;84.73;100794.66;4439359;32;34324;-73
2022/11/13 06:30:13;;;;;;;1.58;1.50;;;;;;;5.92;86.42;100782.44;4440318;32;35316;-73
2022/11/13 06:33:00;;;;;;;1.67;1.33;;;;;;;6.47;83.39;100789.31;4440516;32;33429;-73
2022/11/13 06:35:46;;;;;;;1.85;1.40;;;;;;;6.20;84.50;100792.84;4440326;32;34785;-73
2022/11/13 06:38:34;;;;;;;2.45;2.25;;;;;;;5.98;86.33;100793.00;4428446;32;35067;-73
2022/11/13 06:41:23;;;;;;;1.55;1.45;;;;;;;6.03;87.64;100794.03;4440429;32;34496;-74
2022/11/13 06:44:10;;;;;;;2.05;1.95;;;;;;;6.46;87.30;100795.34;4439556;32;33584;-74
2022/11/13 06:46:56;;;;;;;1.02;1.02;;;;;;;6.37;86.81;100798.53;4440370;32;34645;-73
2022/11/13 06:49:42;;;;;;;2.05;1.48;;;;;;;6.90;86.20;100787.06;4440153;32;35150;-73
2022/11/13 06:52:29;;;;;;;1.08;1.08;;;;;;;7.50;81.80;100793.81;4438943;32;33850;-73
2022/11/13 06:55:15;;;;;;;2.33;2.08;;;;;;;7.45;81.94;100798.91;4440312;32;33515;-73
2022/11/13 06:58:01;;;;;;;1.00;1.00;;;;;;;6.83;85.79;100793.81;4440293;32;33946;-74
2022/11/13 07:00:48;;;;;;;2.72;2.25;;;;;;;6.89;86.88;100804.31;4440216;32;35043;-73
2022/11/13 07:03:35;;;;;;;1.23;1.12;;;;;;;7.25;88.04;100807.84;4440369;32;34599;-73
2022/11/13 07:06:22;;;;;;;2.05;1.67;;;;;;;7.50;86.41;100807.66;4439297;32;34422;-74
2022/11/13 07:09:09;;;;;;;1.50;1.37;;;;;;;7.35;89.37;100815.03;4440246;32;34084;-74
2022/11/13 07:11:55;;;;;;;0.80;0.80;;;;;;;7.86;89.11;100818.91;4439387;32;34960;-74
2022/11/13 07:14:42;;;;;;;1.98;1.85;;;;;;;8.49;85.67;100816.06;4440008;32;35292;-74
2022/11/13 07:17:28;;;;;;;1.00;0.95;;;;;;;8.56;85.83;100822.25;4440164;32;34349;-74
2022/11/13 07:20:15;;;;;;;5.97;3.50;;;;;;;8.42;86.59;100814.16;4440129;32;33816;-74
2022/11/13 07:23:02;;;;;;;;;;;;;;;7.59;92.76;100807.88;4440257;32;34951;-74
2022/11/13 07:25:52;;;;;;;2.00;1.90;;;;;;;8.31;89.09;100810.41;4439185;32;35584;-74
2022/11/13 07:28:38;;;;;;;4.47;3.58;;;;;;;8.16;91.41;100811.81;4439068;32;33358;-74
2022/11/13 07:31:25;;;;;;;3.53;3.22;;;;;;;8.36;91.98;100814.00;4440117;32;33981;-74
2022/11/13 07:34:13;;;;;;;3.33;3.08;;;;;;;8.62;91.14;100811.13;4439066;32;34996;-74
2022/11/13 07:36:59;;;;;;;5.78;1.80;;;;;;;9.06;90.35;100811.13;4439917;32;34562;-74
2022/11/13 07:39:46;;;;;;;9.00;5.05;;;;;;;9.58;87.10;100813.78;4439759;32;33511;-74
2022/11/13 07:42:32;;;;;;;1.90;1.58;;;;;;;9.26;89.60;100816.69;4439972;32;34784;-74
2022/11/13 07:45:19;;;;;;;10.27;5.32;;;;;;;9.28;89.81;100812.41;4438783;32;35391;-74
2022/11/13 07:48:05;;;;;;;6.68;1.62;;;;;;;9.15;88.90;100815.63;4439940;32;34379;-74
2022/11/13 07:50:52;;;;;;;4.97;2.70;;;;;;;9.51;89.20;100814.53;4438779;32;34362;-74
2022/11/13 07:53:39;;;;;;;2.92;2.33;;;;;;;9.60;88.01;100818.19;4439034;32;33646;-74
2022/11/13 07:56:26;;;;;;;1.48;1.37;;;;;;;10.06;84.93;100813.72;4439867;32;35947;-74
2022/11/13 07:59:12;;;;;;;1.95;1.85;;;;;;;10.43;83.65;100813.41;4439562;32;34492;-74
2022/11/13 08:01:59;;;;;;;;;;;;;;;10.15;83.35;100814.72;4440137;32;33731;-74
2022/11/13 08:04:45;;;;;;;2.15;1.48;;;;;;;9.71;84.50;100826.16;4439876;32;35111;-74
2022/11/13 08:07:31;;;;;;;1.15;1.05;;;;;;;9.87;84.83;100819.47;4438773;32;35157;-74
2022/11/13 08:10:19;;;;;;;1.25;1.25;;;;;;;10.47;81.86;100811.72;4439875;32;34514;-74
2022/11/13 08:13:07;;;;;;;4.95;2.08;;;;;;;10.23;82.10;100811.34;4438833;32;33481;-74
2022/11/13 08:15:53;;;;;;;2.47;2.25;;;;;;;10.26;82.37;100813.13;4427871;32;33324;-74
2022/11/13 08:18:40;;;;;;;5.35;3.22;;;;;;;10.28;81.91;100808.81;4439765;32;35959;-74
2022/11/13 08:21:26;;;;;;;0.97;0.93;;;;;;;9.95;83.52;100814.38;4438807;32;34352;-74
2022/11/13 08:24:13;;;;;;;3.12;2.55;;;;;;;10.03;84.16;100813.66;4439526;32;33431;-74
2022/11/13 08:26:59;;;;;;;4.47;3.90;;;;;;;10.47;83.37;100809.13;4439736;32;34903;-74
2022/11/13 08:29:46;;;;;;;2.13;2.00;;;;;;;9.94;83.75;100813.53;4438585;32;36058;-74
2022/11/13 08:32:32;;;;;;;2.50;2.20;;;;;;;10.00;84.34;100820.53;4438760;32;34527;-74
2022/11/13 08:35:19;;;;;;;1.20;1.08;;;;;;;10.65;83.14;100817.16;4438363;32;33272;-74
2022/11/13 08:38:14;;;;;;;1.15;1.15;;;;;;;10.60;83.58;100805.78;4438738;32;34740;-74
2022/11/13 08:41:03;;;;;;;6.72;3.15;;;;;;;11.10;81.67;100802.91;4439544;32;35925;-74
2022/11/13 08:43:54;;;;;;;2.60;2.40;;;;;;;11.72;78.83;100809.56;4438649;32;34543;-74
2022/11/13 08:46:41;;;;;;;4.07;2.75;;;;;;;11.80;77.90;100803.53;4439633;32;33468;-74
2022/11/13 08:49:27;;;;;;;3.85;3.45;;;;;;;11.56;82.14;100794.66;4439563;32;33964;-74
2022/11/13 08:52:14;;;;;;;1.63;1.07;;;;;;;12.12;79.59;100809.00;4439201;32;34872;-74
2022/11/13 08:55:00;;;;;;;4.03;3.20;;;;;;;11.91;80.20;100815.84;4439390;32;34527;-74
2022/11/13 08:57:46;;;;;;;2.60;2.40;;;;;;;11.53;82.21;100807.69;4438247;32;33638;-74
2022/11/13 09:00:33;;;;;;;3.80;3.10;;;;;;;11.30;83.38;100794.41;4439519;32;34847;-74
2022/11/13 09:03:19;;;;;;;4.15;3.10;;;;;;;11.55;81.46;100800.72;4438371;32;35077;-74
2022/11/13 09:06:07;;;;;;;3.33;2.20;;;;;;;12.18;80.99;100806.47;4438472;32;34457;-75
2022/11/13 09:08:54;;;;;;;3.05;2.78;;;;;;;12.80;80.83;100809.38;4438205;32;33595;-74
2022/11/13 09:11:40;;;;;;;2.80;1.92;;;;;;;12.30;79.98;100809.16;4439362;32;33875;-75
2022/11/13 09:14:27;;;;;;;4.95;3.67;;;;;;;13.17;77.38;100810.37;4439213;32;35075;-74
2022/11/13 09:17:13;;;;;;;2.57;2.37;;;;;;;13.47;76.02;100806.09;4439356;32;34565;-75
2022/11/13 09:19:59;;;;;;;3.05;2.83;;;;;;;13.52;73.54;100808.69;4439250;32;33418;-75
2022/11/13 09:23:04;;;;;;;4.43;4.03;;;;;;;13.65;72.83;100805.22;4437618;32;33204;-74
2022/11/13 09:25:51;;;;;;;1.73;1.62;;;;;;;14.84;69.44;100802.34;4439033;32;36023;-75
2022/11/13 09:28:37;;;;;;;3.80;3.47;;;;;;;14.39;71.15;100803.37;4427408;32;34464;-75
2022/11/13 09:31:24;;;;;;;8.45;5.28;;;;;;;14.90;70.21;100804.97;4438983;32;33337;-75
2022/11/13 09:34:10;;;;;;;3.28;3.08;;;;;;;15.26;68.32;100806.47;4438854;32;34117;-75
2022/11/13 09:36:56;;;;;;;2.92;2.72;;;;;;;15.02;69.01;100804.91;4438507;32;34960;-75
2022/11/13 09:39:43;;;;;;;5.90;4.35;;;;;;;16.79;62.68;100797.19;4439008;32;34564;-75
2022/11/13 09:42:30;;;;;;;3.42;3.12;;;;;;;17.16;60.40;100788.81;4438900;32;34132;-75
2022/11/13 09:45:17;;;;;;;6.10;4.25;;;;;;;18.26;57.57;100780.81;4427245;32;33983;-75
2022/11/13 09:48:12;;;;;;;5.40;4.85;;;;;;;19.38;52.37;100779.34;4438917;32;35944;-75
2022/11/13 09:51:03;;;;;;;8.00;4.68;;;;;;;20.46;51.77;100780.06;4438454;32;34484;-75
2022/11/13 09:53:50;;;;;;;4.85;4.43;;;;;;;20.03;51.05;100778.56;4437569;32;33745;-75
2022/11/13 09:56:41;;;;;;;;;;;;;;;21.00;48.17;100768.78;4437886;32;34019;-75
2022/11/13 09:59:33;;;;;;;5.72;5.20;;;;;;;21.85;45.46;100768.69;4437762;32;34853;-75
2022/11/13 10:02:43;;;;;;;5.75;4.90;;;;;;;22.14;45.09;100774.72;4437723;32;34568;-75
2022/11/13 10:06:03;;;;;;;3.20;2.90;;;;;;;22.57;42.35;100769.66;4438499;32;33328;-76
2022/11/13 10:08:57;;;;;;;2.60;2.30;;;;;;;22.43;42.92;100756.91;4435309;32;33891;-75
2022/11/13 10:11:54;;;;;;;5.78;3.17;;;;;;;22.91;41.30;100746.19;4437511;32;34917;-76
2022/11/13 10:14:45;;;;;;;5.20;4.12;;;;;;;22.84;42.82;100739.41;4438461;32;35399;-75
2022/11/13 10:17:44;;;;;;;3.28;3.00;;;;;;;23.61;39.69;100741.63;4437487;32;33470;-76
2022/11/13 10:20:39;;;;;;;5.80;4.57;;;;;;;23.48;39.57;100735.94;4426438;32;33322;-75
2022/11/13 10:23:34;;;;;;;2.70;2.47;;;;;;;23.38;40.31;100733.72;4438041;32;35101;-76
2022/11/13 10:26:23;;;;;;;3.55;3.25;;;;;;;23.76;40.32;100724.13;4425997;32;34029;-76
2022/11/13 10:29:16;;;;;;;3.25;2.95;;;;;;;23.70;40.79;100731.50;4437385;32;33580;-76
2022/11/13 10:32:14;;;;;;;4.53;3.65;;;;;;;23.07;40.87;100727.88;4437416;32;34102;-76
2022/11/13 10:35:17;;;;;;;7.30;3.87;;;;;;;22.70;40.89;100717.84;4438071;32;35423;-76
2022/11/13 10:38:20;;;;;;;6.03;5.07;;;;;;;24.13;37.99;100717.22;4437272;32;35345;-75
2022/11/13 10:41:13;;;;;;;4.57;3.90;;;;;;;24.16;37.82;100721.50;4436604;32;31954;-76
2022/11/13 10:44:17;;;;;;;3.83;3.53;;;;;;;23.40;40.06;100705.28;4436832;32;34457;-75
2022/11/13 10:47:23;;;;;;;3.72;3.42;;;;;;;23.32;40.40;100697.66;4438138;32;35260;-76
2022/11/13 10:50:31;;;;;;;4.85;4.37;;;;;;;22.47;41.82;100698.34;4439283;32;34578;-75
2022/11/13 10:53:18;;;;;;;3.75;3.37;;;;;;;23.03;41.59;100696.16;4439318;32;33549;-76
2022/11/13 10:56:29;;;;;;;17.65;5.55;;;;;;;23.65;39.79;100697.16;4439086;32;33978;-76
2022/11/13 10:59:18;;;;;;;4.72;4.25;;;;;;;23.25;39.64;100689.06;4438964;32;35025;-75
2022/11/13 11:02:17;;;;;;;3.72;3.37;;;;;;;23.04;40.17;100690.78;4439248;32;34427;-76
2022/11/13 11:05:12;;;;;;;8.93;3.83;;;;;;;22.09;43.37;100690.00;4440305;32;33516;-75
2022/11/13 11:07:58;;;;;;;3.67;3.22;;;;;;;22.01;42.58;100684.13;4428400;32;34193;-75
2022/11/13 11:14:31;;;;;;;3.42;3.20;;;;;;;21.81;43.12;100670.72;4439132;32;34745;-76
2022/11/13 11:17:19;;;;;;;1.42;1.35;;;;;;;22.12;42.62;100673.97;4438951;32;33539;-75
2022/11/13 11:20:21;;;;;;;7.75;4.00;;;;;;;21.91;42.95;100666.81;4439154;32;34896;-75
2022/11/13 11:23:47;;;;;;;5.53;4.53;;;;;;;21.98;43.34;100673.63;4439946;32;34973;-75
2022/11/13 11:26:44;;;;;;;4.20;3.75;;;;;;;21.27;43.19;100668.13;4440106;32;35129;-75
2022/11/13 11:29:36;;;;;;;3.55;3.17;;;;;;;21.19;43.64;100662.22;4440083;32;33604;-75
2022/11/13 11:32:32;;;;;;;1.73;1.62;;;;;;;20.92;44.74;100664.00;4439198;32;34927;-75
2022/11/13 11:35:42;;;;;;;3.43;2.63;;;;;;;20.79;45.34;100664.41;4439967;32;35161;-75
2022/11/13 11:38:43;;;;;;;7.47;3.60;;;;;;;20.97;44.50;100662.06;4439943;32;34482;-75
2022/11/13 11:41:41;;;;;;;4.20;3.55;;;;;;;21.53;43.93;100655.78;4439988;32;34380;-75
2022/11/13 11:44:57;;;;;;;3.10;2.83;;;;;;;21.61;41.90;100651.09;4439002;32;34173;-75
2022/11/13 11:47:43;;;;;;;5.03;3.33;;;;;;;20.74;43.88;100644.28;4424447;32;34921;-75
2022/11/13 11:50:42;;;;;;;5.82;4.10;;;;;;;21.07;44.49;100647.63;4438927;32;34459;-75
2022/11/13 11:53:44;;;;;;;2.30;2.10;;;;;;;22.11;42.11;100637.78;4428235;32;33627;-75
2022/11/13 11:56:47;;;;;;;2.70;2.47;;;;;;;21.20;42.02;100642.78;4438448;32;34917;-75
2022/11/13 12:00:00;;;;;;;11.88;3.90;;;;;;;20.49;43.37;100634.44;4438440;32;35198;-76
2022/11/13 12:02:50;;;;;;;2.33;2.12;;;;;;;19.20;48.66;100633.63;4438568;32;34412;-75
2022/11/13 12:06:22;;;;;;;4.50;3.08;;;;;;;18.93;48.51;100619.34;4438891;32;34304;-75
2022/11/13 12:09:29;;;;;;;3.37;3.08;;;;;;;18.68;49.55;100619.03;4439879;32;34132;-74
2022/11/13 12:12:44;;;;;;;3.60;3.13;;;;;;;18.75;47.24;100604.81;4438859;32;35203;-75
2022/11/13 12:15:40;;;;;;;2.87;1.83;;;;;;;18.34;48.63;100606.63;4439674;32;35068;-75
2022/11/13 12:18:45;;;;;;;3.33;3.03;;;;;;;17.37;52.79;100598.03;4427895;32;32691;-74
2022/11/13 12:21:31;;;;;;;2.25;2.05;;;;;;;17.30;50.85;100592.03;4439681;32;34048;-75
2022/11/13 12:24:30;;;;;;;5.85;3.33;;;;;;;17.39;49.99;100576.03;4439527;32;35892;-75
2022/11/13 12:27:19;;;;;;;2.33;2.17;;;;;;;17.28;52.67;100577.13;4439770;32;35208;-75
2022/11/13 12:30:13;;;;;;;5.00;3.35;;;;;;;17.45;50.69;100575.06;4438825;32;33630;-75
2022/11/13 12:33:35;;;;;;;5.10;3.47;;;;;;;16.81;52.72;100575.28;4438714;32;33874;-75
2022/11/13 12:36:22;;;;;;;2.03;1.92;;;;;;;16.80;52.61;100565.66;4433496;32;34977;-75
2022/11/13 12:39:11;;;;;;;3.28;2.92;;;;;;;16.26;54.79;100565.63;4439695;32;34457;-75
2022/11/13 12:42:12;;;;;;;10.68;3.15;;;;;;;16.17;55.83;100565.78;4439651;32;34148;-75
2022/11/13 12:45:04;;;;;;;4.15;3.72;;;;;;;15.88;57.25;100564.38;4439568;32;34067;-75
2022/11/13 12:47:51;;;;;;;3.70;3.33;;;;;;;16.19;57.87;100561.34;4439536;32;35174;-74
2022/11/13 12:50:37;;;;;;;3.60;2.87;;;;;;;15.76;57.95;100556.66;4438585;32;34386;-75
2022/11/13 12:53:26;;;;;;;;;;;;;;;15.90;57.44;100559.97;4439859;32;33556;-75
2022/11/13 12:56:26;;;;;;;2.25;2.08;;;;;;;15.76;59.89;100554.94;4438522;32;35191;-75
2022/11/13 12:59:16;;;;;;;2.28;1.92;;;;;;;15.41;59.65;100555.31;4439144;32;35096;-75
2022/11/13 13:02:49;;;;;;;3.03;2.53;;;;;;;15.22;59.64;100555.50;4439387;32;35236;-75
2022/11/13 13:06:11;;;;;;;1.92;1.83;;;;;;;15.50;60.06;100555.19;4438437;32;33487;-75
2022/11/13 13:09:23;;;;;;;1.83;1.73;;;;;;;15.45;59.79;100550.00;4438470;32;34821;-75
2022/11/13 13:12:17;;;;;;;2.10;1.98;;;;;;;15.31;59.97;100546.66;4438096;32;35076;-75
2022/11/13 13:15:22;;;;;;;3.35;3.08;;;;;;;15.14;60.59;100546.81;4438384;32;35305;-75
2022/11/13 13:18:10;;;;;;;2.12;1.98;;;;;;;15.68;57.30;100539.22;4439304;32;33450;-75
2022/11/13 13:21:09;;;;;;;3.45;3.15;;;;;;;15.20;58.64;100538.91;4438948;32;33960;-75
2022/11/13 13:24:06;;;;;;;4.25;3.40;;;;;;;14.90;60.01;100542.69;4437781;32;35974;-75
2022/11/13 13:26:52;;;;;;;;;;;;;;;15.23;58.69;100546.75;4439419;32;34491;-75